西安 の空港の天気 - METARとTAF

西安咸陽国際空港 ( ZLXY / XIY ) - 中国 陝西省西安市
飛行場実況気象(Metar)
観測時間06/21 12:00 CST (06/21 04:00 UTC)
風向・風速東北東 3m/s 瞬間風速9m/s
視程10km以上
天気現象
なし
気温33℃
湿度41%
気圧1006hPa
METARZLXY 210400Z 07003G09MPS 350V140 CAVOK 33/18 Q1006 NOSIG
過去の天気等 Google飛行場航空写真 Wunderground天気予報

過去48時間のMETAR

飛行場予報(TAF)
発表時間: 6/21 03:05 CST (6/20 19:05 UTC)
予報対象時間: 21日8時 CST ~ 22日8時 CST
風向・風速東北東 3m/s
視程6000m
なし
TAF ZLXY 201905Z 2100/2124 06003MPS 6000 NSC TX35/2108Z TN22/2121Z